Terminal Aerodrome Forecast
Issued by NWS

Home | Current Version | Previous Version | Graphics & Text | Print | Product List | Glossary On
Versions: 1 2 3 4 5 6 7 8 9 10 11 12 13 14 15 16 17 18
513
FTUS42 KMHX 172327
TAFPGV
TAF
KPGV 172327Z 1800/1824 17005KT P6SM BKN050
     FM180800 17005KT 5SM BR BKN007
     FM181200 19006KT P6SM SCT040
     FM181700 20007KT P6SM VCTS BKN050CB
      AMD LTD TO CLD VIS AND WIND=

USA.gov is the U.S. government's official web portal to all federal, state and local government web resources and services.